createdAt,value
2019-02-23T00:01:08.570Z,22.20
2019-02-23T00:03:39.553Z,26.17
2019-02-23T00:06:06.894Z,25.67
2019-02-23T00:08:34.236Z,26.70
2019-02-23T00:11:01.593Z,30.90
2019-02-23T00:13:29.062Z,30.17
2019-02-23T00:15:56.413Z,32.47
2019-02-23T00:18:23.774Z,32.97
2019-02-23T00:20:51.115Z,36.33
2019-02-23T00:23:18.453Z,33.83
2019-02-23T00:25:46.221Z,30.03
2019-02-23T00:28:13.522Z,31.57
2019-02-23T00:30:40.887Z,27.40
2019-02-23T00:33:08.286Z,28.83
2019-02-23T00:35:35.613Z,23.73
2019-02-23T00:38:03.290Z,22.53
2019-02-23T00:40:30.733Z,26.13
2019-02-23T00:42:58.075Z,26.77
2019-02-23T00:45:25.409Z,24.30
2019-02-23T00:47:52.808Z,31.37
2019-02-23T00:50:20.129Z,32.17
2019-02-23T00:52:47.457Z,26.67
2019-02-23T00:55:14.853Z,27.10
2019-02-23T00:57:42.193Z,30.60
2019-02-23T01:00:11.033Z,31.43
2019-02-23T01:02:38.433Z,34.63
2019-02-23T01:05:05.893Z,33.93
2019-02-23T01:07:33.325Z,37.03
2019-02-23T01:10:00.818Z,33.57
2019-02-23T01:12:28.197Z,33.90
2019-02-23T01:14:55.522Z,37.33
2019-02-23T01:17:22.881Z,35.83
2019-02-23T01:19:50.210Z,35.83
2019-02-23T01:22:17.573Z,36.13
2019-02-23T01:24:45.380Z,40.57
2019-02-23T01:27:12.697Z,37.67
2019-02-23T01:29:40.060Z,40.47
2019-02-23T01:32:08.102Z,38.93
2019-02-23T01:34:35.431Z,40.30
2019-02-23T01:37:02.739Z,36.83
2019-02-23T01:39:30.813Z,38.20
2019-02-23T01:41:58.148Z,38.80
2019-02-23T01:44:25.507Z,35.63
2019-02-23T01:46:52.824Z,33.73
2019-02-23T01:49:20.647Z,35.97
2019-02-23T01:51:47.969Z,37.40
2019-02-23T01:54:15.328Z,36.20
2019-02-23T01:56:42.655Z,40.23
2019-02-23T01:59:09.960Z,37.17
2019-02-23T02:01:37.310Z,38.17
2019-02-23T02:04:04.716Z,36.00
2019-02-23T02:06:33.628Z,33.90
2019-02-23T02:09:01.230Z,32.83
2019-02-23T02:11:28.527Z,30.87
2019-02-23T02:13:55.886Z,30.00
2019-02-23T02:16:23.400Z,31.83
2019-02-23T02:18:50.761Z,35.27
2019-02-23T02:21:18.074Z,34.03
2019-02-23T02:23:45.436Z,42.60
2019-02-23T02:26:12.747Z,41.47
2019-02-23T02:28:40.073Z,39.03
2019-02-23T02:31:07.415Z,39.60
2019-02-23T02:33:57.162Z,42.60
2019-02-23T02:36:24.516Z,41.30
2019-02-23T02:38:51.849Z,41.77
2019-02-23T02:41:19.134Z,38.30
2019-02-23T02:43:46.513Z,39.40
2019-02-23T02:46:13.851Z,35.40
2019-02-23T02:48:41.181Z,35.83
2019-02-23T02:51:08.556Z,34.83
2019-02-23T02:53:35.842Z,34.30
2019-02-23T02:56:03.254Z,31.00
2019-02-23T02:58:30.621Z,30.87
2019-02-23T03:00:57.936Z,33.40
2019-02-23T03:03:25.260Z,31.37
2019-02-23T03:05:52.637Z,31.83
2019-02-23T03:08:19.937Z,33.80
2019-02-23T03:10:47.220Z,29.90
2019-02-23T03:13:14.594Z,34.07
2019-02-23T03:15:41.894Z,34.30
2019-02-23T03:18:09.189Z,34.87
2019-02-23T03:20:37.039Z,33.27
2019-02-23T03:23:04.596Z,32.80
2019-02-23T03:25:31.916Z,33.03
2019-02-23T03:27:59.281Z,34.90
2019-02-23T03:30:26.762Z,32.90
2019-02-23T03:32:54.460Z,34.60
2019-02-23T03:35:22.098Z,37.23
2019-02-23T03:37:49.703Z,35.77
2019-02-23T03:40:17.223Z,37.50
2019-02-23T03:42:44.791Z,37.77
2019-02-23T03:45:12.600Z,33.87
2019-02-23T03:47:40.220Z,34.40
2019-02-23T03:50:07.607Z,34.37
2019-02-23T03:52:37.028Z,31.40
2019-02-23T03:55:04.703Z,34.20
2019-02-23T03:57:32.064Z,28.87
2019-02-23T03:59:59.380Z,32.37
2019-02-23T04:02:26.700Z,29.07
2019-02-23T04:04:54.074Z,31.57
2019-02-23T04:07:21.389Z,29.47
2019-02-23T04:09:48.690Z,32.53
2019-02-23T04:12:16.060Z,30.03
2019-02-23T04:14:43.380Z,30.07
2019-02-23T04:17:10.705Z,29.93
2019-02-23T04:19:38.066Z,26.93
2019-02-23T04:22:05.357Z,29.00
2019-02-23T04:24:32.695Z,33.87
2019-02-23T04:27:00.041Z,30.43
2019-02-23T04:29:27.409Z,32.30
2019-02-23T04:31:54.747Z,34.33
2019-02-23T04:34:22.129Z,37.43
2019-02-23T04:36:49.434Z,35.37
2019-02-23T04:39:16.769Z,32.27
2019-02-23T04:41:44.131Z,34.00
2019-02-23T04:44:11.461Z,33.63
2019-02-23T04:46:39.200Z,34.53
2019-02-23T04:49:06.604Z,34.80
2019-02-23T04:51:34.378Z,35.63
2019-02-23T04:54:01.732Z,33.70
2019-02-23T04:56:29.044Z,33.33
2019-02-23T04:58:56.468Z,35.60
2019-02-23T05:01:23.780Z,33.33
2019-02-23T05:03:51.162Z,36.57
2019-02-23T05:06:18.483Z,32.93
2019-02-23T05:08:45.903Z,32.40
2019-02-23T05:11:13.268Z,31.63
2019-02-23T05:13:40.578Z,30.50
2019-02-23T05:16:07.894Z,34.10
2019-02-23T05:18:35.265Z,32.97
2019-02-23T05:21:02.581Z,33.33
2019-02-23T05:23:29.875Z,32.53
2019-02-23T05:25:57.275Z,34.30
2019-02-23T05:28:24.596Z,30.70
2019-02-23T05:30:51.892Z,34.63
2019-02-23T05:33:19.220Z,33.10
2019-02-23T05:35:46.535Z,32.43
2019-02-23T05:38:13.849Z,30.17
2019-02-23T05:40:41.181Z,30.63
2019-02-23T05:43:08.528Z,33.77
2019-02-23T05:45:35.824Z,28.00
2019-02-23T05:48:03.183Z,31.23
2019-02-23T05:50:30.531Z,31.17
2019-02-23T05:52:58.088Z,32.67
2019-02-23T05:55:25.459Z,33.33
2019-02-23T05:57:52.762Z,30.27
2019-02-23T06:00:20.076Z,32.40
2019-02-23T06:02:47.418Z,34.70
2019-02-23T06:05:14.752Z,32.90
2019-02-23T06:07:42.040Z,30.37
2019-02-23T06:10:10.083Z,30.77
2019-02-23T06:12:37.414Z,29.87
2019-02-23T06:15:06.970Z,32.43
2019-02-23T06:17:34.342Z,31.30
2019-02-23T06:20:01.642Z,31.30
2019-02-23T06:22:28.928Z,30.07
2019-02-23T06:24:56.290Z,29.63
2019-02-23T06:27:23.656Z,29.57
2019-02-23T06:29:50.938Z,33.00
2019-02-23T06:32:18.312Z,29.37
2019-02-23T06:34:45.624Z,29.47
2019-02-23T06:37:12.934Z,30.50
2019-02-23T06:39:40.284Z,29.63
2019-02-23T06:42:07.613Z,27.50
2019-02-23T06:44:34.931Z,27.53
2019-02-23T06:47:02.290Z,26.87
2019-02-23T06:49:29.663Z,29.03
2019-02-23T06:52:04.260Z,27.67
2019-02-23T06:54:27.712Z,25.33
2019-02-23T06:56:55.034Z,23.77
2019-02-23T06:59:22.364Z,25.00
2019-02-23T07:01:49.722Z,26.57
2019-02-23T07:04:17.533Z,24.80
2019-02-23T07:06:44.849Z,25.17
2019-02-23T07:09:12.195Z,25.13
2019-02-23T07:11:39.800Z,25.27
2019-02-23T07:14:07.122Z,24.43
2019-02-23T07:16:34.492Z,23.20
2019-02-23T07:19:01.830Z,24.87
2019-02-23T07:21:29.139Z,23.27
2019-02-23T07:23:56.499Z,25.30
2019-02-23T07:26:23.832Z,25.03
2019-02-23T07:28:51.168Z,25.27
2019-02-23T07:31:18.521Z,25.33
2019-02-23T07:33:45.813Z,25.90
2019-02-23T07:36:13.137Z,25.33
2019-02-23T07:38:40.502Z,26.10
2019-02-23T07:41:07.882Z,24.80
2019-02-23T07:43:35.184Z,26.70
2019-02-23T07:46:02.640Z,26.27
2019-02-23T07:48:29.970Z,25.50
2019-02-23T07:50:57.326Z,25.47
2019-02-23T07:53:24.690Z,26.10
2019-02-23T07:55:52.017Z,24.57
2019-02-23T07:58:19.346Z,24.87
2019-02-23T08:00:47.044Z,24.03
2019-02-23T08:03:14.526Z,24.77
2019-02-23T08:05:41.876Z,23.73
2019-02-23T08:08:09.286Z,23.97
2019-02-23T08:10:36.634Z,25.10
2019-02-23T08:13:04.923Z,23.63
2019-02-23T08:15:32.333Z,23.50
2019-02-23T08:17:59.648Z,23.17
2019-02-23T08:20:27.197Z,21.47
2019-02-23T08:22:54.622Z,20.93
2019-02-23T08:25:21.976Z,23.17
2019-02-23T08:27:49.357Z,22.47
2019-02-23T08:30:16.763Z,23.13
2019-02-23T08:32:44.073Z,22.67
2019-02-23T08:35:11.402Z,21.77
2019-02-23T08:37:39.038Z,23.87
2019-02-23T08:40:07.512Z,24.70
2019-02-23T08:42:35.116Z,24.83
2019-02-23T08:45:02.844Z,23.07
2019-02-23T08:47:30.442Z,22.47
2019-02-23T08:49:58.006Z,21.63
2019-02-23T08:52:25.407Z,21.07
2019-02-23T08:54:52.791Z,22.10
2019-02-23T08:57:20.148Z,22.17
2019-02-23T08:59:47.507Z,20.17
2019-02-23T09:02:14.847Z,23.20
2019-02-23T09:04:42.159Z,21.43
2019-02-23T09:07:09.549Z,19.87
2019-02-23T09:09:36.868Z,22.33
2019-02-23T09:12:04.186Z,19.03
2019-02-23T09:14:31.561Z,21.00
2019-02-23T09:16:59.002Z,20.67
2019-02-23T09:19:26.349Z,20.27
2019-02-23T09:21:53.729Z,21.27
2019-02-23T09:24:21.055Z,19.77
2019-02-23T09:26:48.440Z,18.80
2019-02-23T09:29:15.854Z,21.47
2019-02-23T09:31:43.198Z,18.27
2019-02-23T09:34:10.554Z,19.30
2019-02-23T09:36:37.954Z,17.27
2019-02-23T09:39:05.498Z,18.77
2019-02-23T09:41:32.845Z,18.17
2019-02-23T09:44:00.231Z,18.17
2019-02-23T09:46:27.564Z,19.23
2019-02-23T09:48:56.414Z,18.10
2019-02-23T09:51:24.174Z,16.33
2019-02-23T09:53:52.125Z,18.47
2019-02-23T09:56:19.705Z,17.33
2019-02-23T09:58:47.487Z,16.07
2019-02-23T10:01:14.849Z,18.60
2019-02-23T10:03:42.297Z,18.37
2019-02-23T10:06:09.710Z,19.23
2019-02-23T10:08:37.064Z,17.87
2019-02-23T10:11:04.375Z,19.27
2019-02-23T10:13:31.793Z,19.10
2019-02-23T10:15:59.124Z,19.90
2019-02-23T10:18:26.481Z,18.67
2019-02-23T10:20:53.881Z,18.80
2019-02-23T10:23:22.366Z,19.77
2019-02-23T10:25:50.236Z,17.90
2019-02-23T10:28:17.627Z,16.57
2019-02-23T10:30:44.987Z,17.07
2019-02-23T10:33:12.356Z,15.80
2019-02-23T10:35:40.152Z,15.80
2019-02-23T10:38:07.514Z,15.90
2019-02-23T10:40:35.302Z,13.83
2019-02-23T10:43:02.841Z,15.93
2019-02-23T10:45:30.328Z,16.03
2019-02-23T10:47:57.759Z,16.93
2019-02-23T10:50:25.120Z,12.80
2019-02-23T10:52:52.618Z,11.87
2019-02-23T10:55:19.995Z,13.60
2019-02-23T10:57:47.452Z,11.97
2019-02-23T11:00:18.097Z,11.80
2019-02-23T11:02:45.752Z,11.10
2019-02-23T11:05:13.253Z,11.43
2019-02-23T11:07:40.599Z,11.70
2019-02-23T11:10:08.112Z,11.30
2019-02-23T11:12:35.527Z,10.77
2019-02-23T11:15:02.853Z,10.67
2019-02-23T11:17:30.174Z,10.63
2019-02-23T11:19:57.634Z,8.90
2019-02-23T11:22:25.075Z,10.00
2019-02-23T11:24:52.419Z,8.87
2019-02-23T11:27:19.894Z,8.80
2019-02-23T11:29:49.352Z,9.63
2019-02-23T11:32:16.790Z,9.00
2019-02-23T11:34:44.235Z,9.50
2019-02-23T11:37:11.634Z,9.77
2019-02-23T11:39:39.024Z,9.97
2019-02-23T11:42:06.435Z,8.67
2019-02-23T11:44:33.829Z,9.00
2019-02-23T11:47:01.218Z,9.63
2019-02-23T11:49:28.695Z,8.57
2019-02-23T11:51:56.155Z,9.63
2019-02-23T11:54:23.482Z,8.73
2019-02-23T11:56:50.913Z,8.27
2019-02-23T11:59:18.320Z,7.60
2019-02-23T12:01:45.718Z,10.07
2019-02-23T12:04:13.227Z,9.97
2019-02-23T12:06:40.756Z,7.73
2019-02-23T12:09:08.465Z,9.40
2019-02-23T12:11:36.228Z,10.20
2019-02-23T12:14:03.890Z,8.97
2019-02-23T12:16:31.322Z,8.30
2019-02-23T12:18:58.810Z,7.63
2019-02-23T12:21:26.275Z,8.53
2019-02-23T12:23:53.693Z,7.50
2019-02-23T12:26:21.165Z,8.23
2019-02-23T12:28:48.573Z,7.57
2019-02-23T12:31:16.151Z,7.67
2019-02-23T12:33:43.612Z,6.87
2019-02-23T12:36:11.062Z,7.50
2019-02-23T12:38:38.456Z,6.30
2019-02-23T12:41:06.326Z,4.97
2019-02-23T12:43:33.807Z,5.50
2019-02-23T12:46:01.478Z,5.77
2019-02-23T12:48:29.037Z,5.70
2019-02-23T12:50:56.711Z,6.00
2019-02-23T12:53:24.513Z,6.07
2019-02-23T12:55:52.073Z,5.93
2019-02-23T12:58:19.783Z,7.33
2019-02-23T13:00:47.749Z,5.40
2019-02-23T13:03:15.337Z,6.47
2019-02-23T13:05:43.089Z,5.20
2019-02-23T13:08:10.824Z,5.57
2019-02-23T13:10:38.743Z,5.63
2019-02-23T13:13:45.444Z,5.77
2019-02-23T13:16:37.629Z,5.00
2019-02-23T13:19:41.472Z,4.13
2019-02-23T13:23:13.404Z,4.90
2019-02-23T13:26:10.385Z,5.67
2019-02-23T13:29:11.120Z,5.23
2019-02-23T13:32:22.660Z,5.00
2019-02-23T13:35:05.946Z,4.77
2019-02-23T13:38:16.745Z,4.47
2019-02-23T13:41:08.033Z,5.10
2019-02-23T13:44:38.389Z,5.40
2019-02-23T13:47:32.001Z,5.73
2019-02-23T13:50:44.003Z,5.20
2019-02-23T13:53:51.716Z,7.27
2019-02-23T13:56:42.969Z,5.20
2019-02-23T13:59:32.213Z,4.57
2019-02-23T14:02:53.672Z,6.00
2019-02-23T14:05:38.822Z,6.03
2019-02-23T14:09:00.158Z,5.70
2019-02-23T14:12:17.401Z,5.40
2019-02-23T14:15:29.206Z,5.73
2019-02-23T14:18:16.759Z,7.17
2019-02-23T14:21:11.235Z,7.13
2019-02-23T14:24:34.956Z,8.03
2019-02-23T14:27:40.204Z,7.57
2019-02-23T14:31:01.112Z,6.43
2019-02-23T14:34:15.705Z,7.47
2019-02-23T14:37:27.041Z,7.40
2019-02-23T14:40:30.996Z,8.37
2019-02-23T14:43:33.821Z,8.17
2019-02-23T14:46:51.691Z,7.37
2019-02-23T14:50:08.616Z,7.80
2019-02-23T14:53:09.054Z,7.33
2019-02-23T14:56:08.432Z,7.23
2019-02-23T14:59:11.662Z,7.53
2019-02-23T15:02:07.556Z,7.37
2019-02-23T15:05:19.968Z,7.43
2019-02-23T15:08:28.075Z,7.60
2019-02-23T15:11:46.674Z,7.83
2019-02-23T15:14:55.031Z,7.50
2019-02-23T15:17:59.094Z,8.27
2019-02-23T15:21:13.497Z,8.37
2019-02-23T15:24:21.353Z,8.10
2019-02-23T15:27:17.510Z,8.10
2019-02-23T15:30:29.651Z,8.47
2019-02-23T15:33:19.767Z,10.10
2019-02-23T15:36:27.597Z,8.90
2019-02-23T15:39:23.197Z,8.40
2019-02-23T15:42:50.414Z,8.63
2019-02-23T15:45:55.099Z,8.10
2019-02-23T15:48:39.767Z,8.30
2019-02-23T15:51:07.687Z,8.53
2019-02-23T15:53:35.628Z,9.67
2019-02-23T15:56:04.371Z,8.70
2019-02-23T15:58:32.330Z,10.00
2019-02-23T16:01:00.227Z,8.87
2019-02-23T16:03:28.129Z,8.50
2019-02-23T16:05:56.064Z,8.87
2019-02-23T16:08:23.921Z,9.07
2019-02-23T16:10:51.691Z,9.00
2019-02-23T16:13:19.511Z,8.73
2019-02-23T16:15:47.510Z,8.97
2019-02-23T16:18:15.315Z,11.27
2019-02-23T16:20:43.450Z,9.17
2019-02-23T16:23:11.878Z,9.33
2019-02-23T16:25:39.697Z,8.90
2019-02-23T16:28:07.639Z,8.90
2019-02-23T16:30:35.563Z,9.63
2019-02-23T16:33:03.457Z,10.00
2019-02-23T16:35:31.398Z,10.03
2019-02-23T16:37:59.333Z,8.70
2019-02-23T16:40:27.258Z,12.97
2019-02-23T16:42:57.287Z,7.83
2019-02-23T16:45:25.217Z,10.60
2019-02-23T16:47:53.120Z,9.30
2019-02-23T16:50:21.074Z,9.70
2019-02-23T16:52:48.988Z,10.30
2019-02-23T16:55:17.031Z,9.03
2019-02-23T16:57:44.940Z,10.33
2019-02-23T17:00:12.832Z,9.60
2019-02-23T17:02:40.732Z,10.67
2019-02-23T17:05:08.943Z,10.40
2019-02-23T17:07:36.742Z,9.50
2019-02-23T17:10:05.042Z,10.40
2019-02-23T17:12:33.030Z,10.27
2019-02-23T17:15:00.938Z,10.57
2019-02-23T17:17:28.858Z,10.30
2019-02-23T17:19:56.842Z,10.40
2019-02-23T17:22:25.980Z,10.77
2019-02-23T17:24:53.751Z,9.90
2019-02-23T17:27:21.913Z,10.43
2019-02-23T17:29:49.894Z,9.47
2019-02-23T17:32:17.919Z,9.60
2019-02-23T17:34:46.035Z,10.03
2019-02-23T17:37:13.931Z,9.57
2019-02-23T17:39:41.871Z,10.47
2019-02-23T17:42:09.772Z,10.03
2019-02-23T17:44:37.927Z,9.27
2019-02-23T17:47:06.119Z,10.10
2019-02-23T17:49:34.175Z,21.77
2019-02-23T17:52:02.001Z,18.10
2019-02-23T17:54:30.113Z,10.50
2019-02-23T17:56:58.110Z,9.67
2019-02-23T17:59:26.170Z,9.43
2019-02-23T18:01:54.230Z,9.17
2019-02-23T18:04:22.224Z,7.10
2019-02-23T18:06:50.145Z,7.80
2019-02-23T18:09:18.108Z,9.00
2019-02-23T18:11:46.206Z,9.70
2019-02-23T18:14:15.289Z,8.43
2019-02-23T18:16:43.229Z,8.47
2019-02-23T18:19:11.630Z,8.60
2019-02-23T18:21:39.560Z,8.17
2019-02-23T18:24:08.152Z,8.70
2019-02-23T18:26:36.192Z,8.30
2019-02-23T18:29:04.080Z,8.30
2019-02-23T18:31:32.401Z,9.60
2019-02-23T18:34:00.652Z,8.07
2019-02-23T18:36:28.910Z,7.93
2019-02-23T18:38:56.870Z,8.07
2019-02-23T18:41:24.867Z,8.53
2019-02-23T18:43:53.300Z,8.17
2019-02-23T18:46:21.137Z,7.97
2019-02-23T18:48:49.259Z,8.47
2019-02-23T18:51:17.233Z,9.07
2019-02-23T18:53:44.994Z,7.67
2019-02-23T18:56:13.044Z,9.13
2019-02-23T18:58:40.858Z,8.70
2019-02-23T19:01:09.181Z,7.07
2019-02-23T19:03:37.055Z,7.33
2019-02-23T19:06:04.963Z,7.10
2019-02-23T19:08:34.104Z,7.40
2019-02-23T19:11:02.071Z,8.23
2019-02-23T19:13:29.898Z,7.70
2019-02-23T19:15:57.812Z,8.97
2019-02-23T19:18:27.329Z,7.70
2019-02-23T19:20:55.271Z,7.23
2019-02-23T19:23:23.220Z,8.40
2019-02-23T19:25:52.258Z,8.83
2019-02-23T19:28:20.215Z,7.33
2019-02-23T19:30:50.638Z,8.10
2019-02-23T19:33:18.629Z,7.07
2019-02-23T19:35:46.567Z,7.17
2019-02-23T19:38:14.505Z,8.80
2019-02-23T19:40:42.320Z,8.30
2019-02-23T19:43:10.272Z,10.37
2019-02-23T19:45:38.547Z,8.10
2019-02-23T19:48:06.540Z,7.80
2019-02-23T19:50:40.841Z,7.63
2019-02-23T19:53:10.785Z,7.07
2019-02-23T19:55:38.746Z,8.03
2019-02-23T19:58:06.956Z,7.37
2019-02-23T20:00:40.496Z,8.37
2019-02-23T20:03:09.829Z,8.80
2019-02-23T20:05:38.242Z,9.00
2019-02-23T20:08:06.466Z,6.60
2019-02-23T20:10:34.359Z,7.93
2019-02-23T20:13:03.773Z,7.17
2019-02-23T20:15:34.019Z,7.00
2019-02-23T20:18:02.264Z,7.53
2019-02-23T20:20:30.330Z,7.97
2019-02-23T20:22:58.444Z,6.43
2019-02-23T20:25:26.387Z,6.47
2019-02-23T20:27:54.535Z,6.87
2019-02-23T20:30:22.757Z,8.27
2019-02-23T20:32:50.690Z,6.40
2019-02-23T20:35:18.642Z,7.53
2019-02-23T20:37:48.314Z,9.73
2019-02-23T20:40:17.561Z,8.07
2019-02-23T20:42:45.754Z,6.77
2019-02-23T20:45:13.764Z,6.77
2019-02-23T20:47:41.700Z,7.77
2019-02-23T20:50:09.813Z,7.23
2019-02-23T20:52:38.255Z,7.33
2019-02-23T20:55:06.409Z,7.07
2019-02-23T20:57:34.329Z,6.17
2019-02-23T21:00:03.690Z,7.50
2019-02-23T21:02:32.853Z,7.57
2019-02-23T21:05:00.885Z,7.73
2019-02-23T21:07:28.863Z,6.47
2019-02-23T21:09:56.815Z,7.60
2019-02-23T21:12:24.835Z,9.70
2019-02-23T21:14:52.837Z,6.87
2019-02-23T21:17:20.800Z,6.83
2019-02-23T21:19:48.737Z,8.03
2019-02-23T21:22:16.646Z,8.63
2019-02-23T21:24:44.476Z,7.33
2019-02-23T21:27:13.244Z,7.57
2019-02-23T21:29:41.392Z,7.37
2019-02-23T21:32:12.263Z,7.17
2019-02-23T21:34:42.225Z,8.43
2019-02-23T21:37:10.183Z,6.90
2019-02-23T21:39:38.060Z,10.63
2019-02-23T21:42:05.957Z,7.07
2019-02-23T21:44:33.894Z,7.47
2019-02-23T21:47:01.659Z,7.13
2019-02-23T21:49:29.529Z,6.67
2019-02-23T21:51:57.435Z,7.20
2019-02-23T21:54:25.122Z,8.70
2019-02-23T21:56:52.979Z,6.93
2019-02-23T21:59:20.850Z,7.57
2019-02-23T22:01:48.733Z,7.60
2019-02-23T22:04:16.373Z,9.73
2019-02-23T22:06:44.104Z,6.83
2019-02-23T22:09:11.761Z,7.40
2019-02-23T22:11:39.398Z,7.37
2019-02-23T22:14:07.012Z,8.33
2019-02-23T22:16:34.789Z,7.33
2019-02-23T22:19:03.157Z,11.50
2019-02-23T22:21:31.068Z,7.93
2019-02-23T22:23:58.810Z,7.60
2019-02-23T22:26:26.394Z,7.10
2019-02-23T22:28:54.055Z,7.53
2019-02-23T22:31:22.038Z,7.57
2019-02-23T22:33:49.747Z,7.83
2019-02-23T22:36:17.807Z,9.00
2019-02-23T22:38:45.346Z,8.53
2019-02-23T22:41:14.378Z,7.43
2019-02-23T22:43:41.988Z,7.70
2019-02-23T22:46:09.403Z,7.43
2019-02-23T22:48:36.820Z,9.13
2019-02-23T22:51:04.262Z,8.03
2019-02-23T22:53:31.696Z,8.33
2019-02-23T22:55:59.076Z,6.60
2019-02-23T22:58:26.551Z,6.93
2019-02-23T23:01:05.203Z,7.30
2019-02-23T23:03:32.570Z,7.47
2019-02-23T23:05:59.937Z,8.27
2019-02-23T23:08:27.336Z,8.60
2019-02-23T23:10:54.754Z,7.10
2019-02-23T23:13:22.105Z,7.63
2019-02-23T23:15:49.455Z,9.00
2019-02-23T23:18:16.872Z,8.53
2019-02-23T23:20:44.270Z,6.80
2019-02-23T23:23:11.617Z,8.03
2019-02-23T23:25:39.104Z,7.13
2019-02-23T23:28:06.453Z,7.67
2019-02-23T23:30:33.838Z,8.70
2019-02-23T23:33:01.337Z,8.07
2019-02-23T23:35:29.092Z,7.13
2019-02-23T23:37:56.738Z,7.00
2019-02-23T23:40:24.446Z,7.17
2019-02-23T23:42:57.989Z,7.13
2019-02-23T23:45:21.076Z,7.20
2019-02-23T23:47:48.477Z,7.83
2019-02-23T23:50:15.815Z,6.93
2019-02-23T23:52:43.251Z,7.90
2019-02-23T23:55:11.642Z,6.27
2019-02-23T23:57:39.128Z,7.00
